Kemptville, Canada
Current Conditions -  °F | °C
As of 7:00 AM on Monday 26 Jan 2015 (Local Time) from CYOW Reporting Station
Few Clouds Few Clouds  
Wind Chill: -27°   Ceiling: Unl
Heat Index: -9°   Visibility: 15mi
Dew Point: -15°   Wind: 9mph
Humidity: 77%   Direction: 20°NNE
Pressure: 30.15"   Gusts: NA
Location:  45.02°N, 75.65°W
Report Text: CYOW 261200Z 02008KT 15SM FEW240 M23/M26 A3015 RMK CI1 FROIN SLP223
Loading
Personal Weather Stations






























Interactive Weather Map New forecast layout! Learn more

10-Day Weather Forecast

Advertisements
Track Severe Weather on mobile